createdAt,value
2022-12-12T00:02:26.762Z,53.45
2022-12-12T00:04:58.131Z,51.60
2022-12-12T00:07:26.277Z,51.47
2022-12-12T00:09:54.348Z,50.58
2022-12-12T00:12:22.577Z,50.70
2022-12-12T00:14:50.704Z,49.25
2022-12-12T00:17:20.287Z,48.45
2022-12-12T00:19:48.511Z,50.22
2022-12-12T00:22:16.626Z,46.83
2022-12-12T00:24:44.776Z,47.55
2022-12-12T00:27:13.191Z,47.22
2022-12-12T00:29:41.379Z,45.67
2022-12-12T00:32:09.452Z,46.58
2022-12-12T00:34:39.031Z,46.38
2022-12-12T00:37:07.160Z,44.67
2022-12-12T00:39:35.650Z,43.53
2022-12-12T00:42:03.851Z,44.00
2022-12-12T00:44:31.912Z,43.60
2022-12-12T00:47:00.081Z,43.78
2022-12-12T00:49:28.333Z,41.42
2022-12-12T00:51:57.811Z,42.08
2022-12-12T00:54:25.960Z,40.95
2022-12-12T00:56:54.026Z,40.67
2022-12-12T00:59:22.896Z,39.80
2022-12-12T01:01:51.060Z,41.13
2022-12-12T01:04:19.199Z,40.05
2022-12-12T01:06:49.255Z,38.20
2022-12-12T01:09:18.780Z,38.47
2022-12-12T01:11:47.496Z,37.72
2022-12-12T01:14:15.701Z,37.13
2022-12-12T01:16:43.930Z,36.90
2022-12-12T01:19:12.113Z,37.38
2022-12-12T01:21:40.185Z,36.35
2022-12-12T01:24:08.555Z,36.15
2022-12-12T01:26:38.003Z,34.78
2022-12-12T01:29:07.258Z,35.65
2022-12-12T01:31:35.401Z,35.08
2022-12-12T01:34:03.628Z,33.90
2022-12-12T01:36:31.737Z,33.35
2022-12-12T01:39:00.759Z,32.72
2022-12-12T01:41:28.937Z,33.78
2022-12-12T01:44:01.692Z,32.80
2022-12-12T01:46:43.922Z,30.95
2022-12-12T01:49:18.154Z,32.22
2022-12-12T01:51:47.408Z,30.02
2022-12-12T01:54:17.766Z,30.67
2022-12-12T01:56:46.068Z,30.40
2022-12-12T01:59:16.257Z,30.13
2022-12-12T02:01:45.265Z,30.40
2022-12-12T02:04:13.607Z,28.83
2022-12-12T02:06:41.884Z,29.83
2022-12-12T02:09:12.264Z,28.70
2022-12-12T02:11:44.249Z,28.33
2022-12-12T02:14:12.636Z,27.63
2022-12-12T02:16:51.318Z,27.00
2022-12-12T02:19:44.332Z,26.80
2022-12-12T02:22:15.488Z,25.67
2022-12-12T02:24:53.308Z,26.35
2022-12-12T02:27:42.075Z,25.10
2022-12-12T02:30:22.245Z,25.67
2022-12-12T02:33:22.866Z,24.70
2022-12-12T02:35:55.880Z,23.90
2022-12-12T02:38:28.705Z,24.83
2022-12-12T02:41:02.304Z,23.15
2022-12-12T02:43:33.008Z,23.45
2022-12-12T02:46:02.454Z,22.98
2022-12-12T02:48:32.939Z,22.48
2022-12-12T02:51:02.187Z,23.35
2022-12-12T02:53:30.270Z,23.00
2022-12-12T02:56:05.409Z,21.95
2022-12-12T02:58:33.893Z,21.08
2022-12-12T03:01:11.443Z,20.90
2022-12-12T03:04:00.508Z,20.63
2022-12-12T03:07:03.255Z,20.67
2022-12-12T03:09:35.347Z,20.13
2022-12-12T03:12:06.286Z,19.83
2022-12-12T03:14:39.959Z,19.77
2022-12-12T03:17:11.520Z,19.38
2022-12-12T03:19:42.933Z,19.42
2022-12-12T03:22:13.035Z,19.52
2022-12-12T03:24:43.193Z,19.45
2022-12-12T03:27:12.244Z,18.70
2022-12-12T03:29:41.388Z,18.33
2022-12-12T03:32:12.029Z,18.17
2022-12-12T03:34:43.445Z,17.38
2022-12-12T03:37:13.445Z,17.58
2022-12-12T03:39:43.454Z,16.45
2022-12-12T03:42:13.767Z,17.15
2022-12-12T03:44:44.785Z,17.15
2022-12-12T03:47:14.348Z,16.80
2022-12-12T03:49:46.605Z,16.70
2022-12-12T03:52:16.492Z,16.65
2022-12-12T03:54:47.146Z,16.55
2022-12-12T03:57:17.344Z,15.45
2022-12-12T03:59:45.973Z,15.07
2022-12-12T04:02:17.881Z,15.70
2022-12-12T04:04:49.764Z,15.55
2022-12-12T04:07:20.221Z,15.32
2022-12-12T04:10:05.723Z,14.77
2022-12-12T04:12:52.713Z,14.85
2022-12-12T04:15:37.646Z,13.77
2022-12-12T04:18:13.564Z,13.95
2022-12-12T04:21:03.098Z,14.50
2022-12-12T04:23:35.499Z,14.18
2022-12-12T04:26:29.580Z,13.73
2022-12-12T04:29:03.845Z,13.52
2022-12-12T04:31:32.430Z,14.05
2022-12-12T04:34:03.143Z,13.13
2022-12-12T04:36:32.770Z,13.48
2022-12-12T04:39:01.044Z,12.20
2022-12-12T04:41:29.345Z,12.40
2022-12-12T04:43:57.466Z,12.23
2022-12-12T04:46:26.134Z,12.65
2022-12-12T04:48:57.286Z,12.10
2022-12-12T04:51:27.508Z,12.50
2022-12-12T04:53:59.268Z,11.15
2022-12-12T04:56:28.574Z,11.15
2022-12-12T04:58:56.664Z,11.57
2022-12-12T05:01:26.957Z,11.05
2022-12-12T05:03:56.531Z,11.27
2022-12-12T05:06:28.688Z,11.27
2022-12-12T05:08:58.277Z,11.05
2022-12-12T05:11:26.373Z,11.27
2022-12-12T05:13:54.796Z,10.45
2022-12-12T05:16:27.417Z,10.23
2022-12-12T05:18:56.285Z,10.27
2022-12-12T05:21:24.481Z,10.25
2022-12-12T05:23:52.981Z,10.00
2022-12-12T05:26:24.240Z,9.85
2022-12-12T05:28:54.207Z,9.60
2022-12-12T05:31:22.584Z,9.70
2022-12-12T05:33:50.901Z,9.48
2022-12-12T05:36:19.313Z,9.98
2022-12-12T05:38:47.605Z,9.95
2022-12-12T05:41:16.060Z,9.60
2022-12-12T05:43:45.598Z,9.80
2022-12-12T05:46:13.911Z,8.90
2022-12-12T05:48:42.042Z,9.73
2022-12-12T05:51:10.232Z,8.45
2022-12-12T05:53:42.794Z,8.93
2022-12-12T05:56:12.620Z,8.40
2022-12-12T05:58:41.043Z,8.30
2022-12-12T06:01:11.232Z,8.70
2022-12-12T06:03:39.627Z,12.70
2022-12-12T06:06:09.765Z,21.95
2022-12-12T06:08:37.994Z,19.52
2022-12-12T06:11:07.346Z,16.65
2022-12-12T06:13:35.553Z,20.83
2022-12-12T06:16:07.881Z,21.75
2022-12-12T06:18:37.527Z,21.83
2022-12-12T06:21:06.350Z,21.65
2022-12-12T06:23:38.165Z,21.92
2022-12-12T06:26:06.592Z,24.38
2022-12-12T06:28:34.664Z,24.02
2022-12-12T06:31:05.640Z,27.45
2022-12-12T06:33:39.312Z,28.75
2022-12-12T06:36:08.565Z,33.90
2022-12-12T06:38:36.879Z,35.70
2022-12-12T06:41:07.332Z,34.83
2022-12-12T06:43:35.549Z,37.67
2022-12-12T06:46:04.104Z,35.88
2022-12-12T06:48:32.533Z,37.17
2022-12-12T06:51:02.259Z,39.33
2022-12-12T06:53:30.409Z,40.55
2022-12-12T06:55:58.538Z,48.83
2022-12-12T06:58:26.726Z,45.05
2022-12-12T07:00:55.001Z,43.45
2022-12-12T07:03:23.205Z,45.50
2022-12-12T07:05:51.272Z,51.13
2022-12-12T07:08:21.043Z,47.58
2022-12-12T07:10:49.265Z,48.42
2022-12-12T07:13:17.488Z,46.85
2022-12-12T07:15:45.984Z,46.28
2022-12-12T07:18:14.627Z,48.72
2022-12-12T07:20:43.157Z,48.72
2022-12-12T07:23:11.497Z,44.60
2022-12-12T07:25:41.481Z,46.75
2022-12-12T07:28:10.407Z,46.17
2022-12-12T07:30:39.860Z,47.83
2022-12-12T07:33:08.481Z,45.78
2022-12-12T07:35:36.976Z,46.50
2022-12-12T07:38:05.623Z,46.13
2022-12-12T07:40:34.003Z,46.00
2022-12-12T07:43:03.882Z,45.15
2022-12-12T07:45:32.281Z,44.15
2022-12-12T07:48:00.794Z,45.72
2022-12-12T07:50:29.332Z,45.50
2022-12-12T07:52:57.625Z,44.00
2022-12-12T07:55:25.877Z,42.60
2022-12-12T07:57:54.274Z,41.95
2022-12-12T08:00:24.081Z,42.22
2022-12-12T08:02:52.637Z,41.53
2022-12-12T08:05:21.062Z,41.80
2022-12-12T08:07:49.914Z,40.92
2022-12-12T08:10:19.023Z,40.13
2022-12-12T08:12:47.305Z,34.35
2022-12-12T08:15:16.870Z,33.65
2022-12-12T08:17:46.956Z,32.30
2022-12-12T08:20:17.175Z,40.88
2022-12-12T08:22:45.585Z,37.40
2022-12-12T08:25:14.881Z,37.55
2022-12-12T08:27:43.719Z,40.67
2022-12-12T08:30:12.440Z,37.55
2022-12-12T08:32:40.838Z,29.33
2022-12-12T08:35:11.961Z,33.03
2022-12-12T08:37:40.513Z,34.10
2022-12-12T08:40:11.034Z,36.70
2022-12-12T08:42:39.779Z,39.33
2022-12-12T08:45:08.890Z,39.50
2022-12-12T08:47:37.253Z,36.53
2022-12-12T08:50:06.855Z,37.13
2022-12-12T08:52:36.849Z,35.95
2022-12-12T08:55:05.586Z,35.67
2022-12-12T08:57:34.284Z,42.42
2022-12-12T09:00:02.576Z,44.80
2022-12-12T09:02:31.009Z,42.28
2022-12-12T09:04:59.428Z,38.88
2022-12-12T09:07:27.657Z,41.88
2022-12-12T09:09:58.622Z,45.38
2022-12-12T09:12:26.908Z,46.72
2022-12-12T09:14:55.636Z,44.25
2022-12-12T09:17:24.008Z,34.95
2022-12-12T09:19:52.450Z,35.38
2022-12-12T09:22:21.076Z,35.65
2022-12-12T09:24:49.855Z,37.22
2022-12-12T09:27:19.669Z,35.97
2022-12-12T09:29:47.993Z,33.97
2022-12-12T09:32:21.254Z,33.95
2022-12-12T09:34:52.976Z,32.33
2022-12-12T09:37:21.224Z,32.53
2022-12-12T09:39:49.552Z,31.15
2022-12-12T09:42:22.350Z,29.75
2022-12-12T09:44:51.168Z,30.17
2022-12-12T09:47:24.638Z,29.23
2022-12-12T09:49:53.829Z,28.92
2022-12-12T09:52:30.635Z,28.20
2022-12-12T09:54:59.237Z,27.42
2022-12-12T09:57:30.182Z,26.60
2022-12-12T09:59:59.634Z,27.40
2022-12-12T10:02:35.199Z,27.20
2022-12-12T10:05:04.045Z,28.80
2022-12-12T10:07:36.133Z,29.08
2022-12-12T10:10:07.208Z,29.75
2022-12-12T10:12:37.071Z,29.52
2022-12-12T10:15:06.995Z,30.00
2022-12-12T10:17:36.899Z,29.58
2022-12-12T10:20:06.425Z,28.45
2022-12-12T10:22:38.391Z,28.73
2022-12-12T10:25:10.032Z,32.38
2022-12-12T10:27:39.578Z,32.78
2022-12-12T10:30:16.662Z,31.50
2022-12-12T10:32:51.674Z,32.00
2022-12-12T10:35:26.794Z,33.30
2022-12-12T10:38:04.053Z,34.53
2022-12-12T10:40:40.766Z,37.80
2022-12-12T10:43:12.651Z,41.72
2022-12-12T10:45:46.939Z,41.20
2022-12-12T10:48:15.382Z,43.75
2022-12-12T10:50:44.633Z,45.55
2022-12-12T10:53:13.093Z,44.40
2022-12-12T10:55:45.102Z,44.15
2022-12-12T10:58:17.063Z,44.88
2022-12-12T11:00:45.914Z,44.35
2022-12-12T11:03:26.930Z,49.17
2022-12-12T11:05:55.221Z,56.75
2022-12-12T11:08:27.280Z,61.80
2022-12-12T11:11:07.000Z,57.08
2022-12-12T11:13:45.336Z,55.22
2022-12-12T11:16:15.768Z,57.38
2022-12-12T11:18:50.076Z,59.03
2022-12-12T11:21:18.269Z,61.22
2022-12-12T11:23:50.944Z,58.63
2022-12-12T11:26:19.807Z,59.03
2022-12-12T11:28:54.421Z,57.95
2022-12-12T11:31:23.577Z,60.47
2022-12-12T11:33:54.722Z,60.47
2022-12-12T11:36:23.955Z,59.05
2022-12-12T11:38:53.712Z,56.92
2022-12-12T11:41:22.291Z,55.95
2022-12-12T11:44:00.314Z,55.40
2022-12-12T11:46:29.961Z,56.63
2022-12-12T11:49:00.429Z,54.10
2022-12-12T11:51:33.516Z,52.67
2022-12-12T11:54:01.949Z,54.70
2022-12-12T11:56:35.029Z,54.40
2022-12-12T11:59:14.198Z,53.33
2022-12-12T12:01:46.158Z,55.33
2022-12-12T12:04:24.448Z,53.25
2022-12-12T12:07:00.337Z,54.00
2022-12-12T12:09:34.171Z,54.80
2022-12-12T12:12:07.383Z,54.90
2022-12-12T12:15:02.434Z,54.40
2022-12-12T12:17:41.740Z,54.72
2022-12-12T12:20:13.422Z,54.78
2022-12-12T12:22:46.599Z,54.67
2022-12-12T12:25:20.955Z,55.80
2022-12-12T12:27:52.152Z,55.38
2022-12-12T12:30:23.095Z,55.13
2022-12-12T12:33:11.601Z,55.75
2022-12-12T12:35:46.505Z,56.45
2022-12-12T12:38:20.872Z,60.03
2022-12-12T12:40:57.480Z,69.75
2022-12-12T12:43:34.680Z,57.83
2022-12-12T12:46:08.628Z,60.25
2022-12-12T12:48:37.897Z,61.03
2022-12-12T12:51:07.783Z,64.20
2022-12-12T12:53:38.022Z,67.63
2022-12-12T12:56:15.713Z,63.42
2022-12-12T12:58:45.448Z,76.47
2022-12-12T13:01:15.983Z,71.05
2022-12-12T13:03:46.861Z,76.90
2022-12-12T13:06:17.617Z,76.68
2022-12-12T13:08:50.563Z,78.30
2022-12-12T13:11:20.559Z,77.22
2022-12-12T13:13:49.286Z,82.75
2022-12-12T13:16:20.206Z,86.85
2022-12-12T13:18:49.870Z,85.50
2022-12-12T13:21:21.621Z,86.53
2022-12-12T13:23:55.683Z,83.45
2022-12-12T13:26:25.703Z,81.68
2022-12-12T13:28:55.727Z,80.75
2022-12-12T13:31:44.915Z,75.57
2022-12-12T13:34:13.652Z,76.72
2022-12-12T13:36:42.977Z,73.55
2022-12-12T13:39:25.045Z,53.25
2022-12-12T13:41:57.993Z,51.28
2022-12-12T13:44:37.130Z,51.28
2022-12-12T13:47:45.211Z,50.65
2022-12-12T13:50:20.651Z,50.40
2022-12-12T13:53:11.537Z,50.10
2022-12-12T13:55:39.718Z,49.65
2022-12-12T13:58:32.084Z,49.97
2022-12-12T14:01:27.627Z,50.03
2022-12-12T14:03:57.173Z,48.33
2022-12-12T14:06:28.051Z,49.05
2022-12-12T14:08:56.187Z,47.70
2022-12-12T14:11:28.213Z,48.15
2022-12-12T14:14:07.189Z,46.15
2022-12-12T14:16:35.464Z,47.55
2022-12-12T14:19:08.940Z,46.22
2022-12-12T14:21:45.051Z,46.42
2022-12-12T14:24:48.037Z,46.53
2022-12-12T14:27:16.713Z,44.55
2022-12-12T14:29:45.016Z,42.88
2022-12-12T14:32:31.637Z,43.33
2022-12-12T14:35:07.524Z,43.88
2022-12-12T14:37:40.132Z,42.40
2022-12-12T14:40:14.361Z,43.22
2022-12-12T14:43:20.625Z,41.28
2022-12-12T14:45:42.145Z,40.13
2022-12-12T14:48:17.781Z,40.78
2022-12-12T14:50:49.544Z,41.97
2022-12-12T14:53:18.833Z,41.03
2022-12-12T14:55:51.265Z,39.17
2022-12-12T14:58:23.187Z,39.17
2022-12-12T15:00:52.470Z,39.63
2022-12-12T15:03:29.447Z,39.17
2022-12-12T15:06:25.362Z,38.95
2022-12-12T15:08:53.734Z,38.58
2022-12-12T15:11:22.897Z,37.88
2022-12-12T15:13:52.592Z,36.55
2022-12-12T15:16:20.898Z,37.58
2022-12-12T15:18:49.217Z,36.35
2022-12-12T15:21:17.393Z,36.33
2022-12-12T15:23:46.972Z,36.17
2022-12-12T15:26:17.817Z,35.03
2022-12-12T15:28:46.220Z,34.63
2022-12-12T15:31:15.472Z,35.03
2022-12-12T15:33:43.724Z,34.78
2022-12-12T15:36:20.336Z,34.15
2022-12-12T15:41:44.900Z,34.05
2022-12-12T15:44:17.627Z,34.15
2022-12-12T15:46:45.919Z,33.15
2022-12-12T15:49:39.385Z,33.47
2022-12-12T15:52:13.121Z,36.60
2022-12-12T15:54:47.302Z,35.65
2022-12-12T15:57:18.724Z,39.30
2022-12-12T15:59:46.958Z,40.72
2022-12-12T16:02:31.908Z,47.40
2022-12-12T16:05:03.523Z,47.35
2022-12-12T16:07:37.544Z,43.63
2022-12-12T16:10:21.166Z,49.10
2022-12-12T16:13:01.589Z,48.25
2022-12-12T16:15:31.873Z,49.55
2022-12-12T16:18:01.447Z,48.55
2022-12-12T16:20:30.688Z,45.83
2022-12-12T16:23:10.377Z,48.70
2022-12-12T16:25:39.535Z,47.75
2022-12-12T16:28:24.734Z,46.33
2022-12-12T16:30:57.538Z,47.05
2022-12-12T16:33:29.562Z,46.53
2022-12-12T16:35:58.358Z,44.47
2022-12-12T16:38:26.578Z,47.30
2022-12-12T16:40:54.951Z,43.58
2022-12-12T16:43:25.206Z,44.03
2022-12-12T16:45:53.899Z,46.42
2022-12-12T16:48:22.925Z,44.28
2022-12-12T16:50:51.852Z,43.45
2022-12-12T16:53:20.269Z,45.53
2022-12-12T16:55:49.951Z,44.20
2022-12-12T16:58:18.277Z,43.80
2022-12-12T17:00:47.845Z,45.75
2022-12-12T17:03:16.469Z,42.20
2022-12-12T17:05:44.880Z,43.25
2022-12-12T17:08:13.428Z,40.80
2022-12-12T17:10:41.642Z,43.30
2022-12-12T17:13:14.408Z,42.35
2022-12-12T17:15:42.878Z,41.83
2022-12-12T17:18:13.905Z,44.55
2022-12-12T17:20:42.230Z,47.00
2022-12-12T17:23:29.964Z,45.92
2022-12-12T17:26:03.596Z,46.00
2022-12-12T17:28:33.007Z,45.25
2022-12-12T17:31:01.319Z,48.20
2022-12-12T17:33:31.164Z,46.38
2022-12-12T17:36:00.405Z,49.33
2022-12-12T17:38:30.641Z,47.95
2022-12-12T17:40:59.315Z,47.42
2022-12-12T17:43:27.613Z,47.42
2022-12-12T17:46:00.033Z,49.75
2022-12-12T17:48:41.834Z,52.13
2022-12-12T17:51:12.215Z,57.72
2022-12-12T17:53:40.492Z,60.08
2022-12-12T17:56:09.516Z,59.45
2022-12-12T17:58:37.931Z,56.97
2022-12-12T18:01:12.716Z,56.60
2022-12-12T18:03:42.720Z,55.67
2022-12-12T18:06:11.296Z,56.42
2022-12-12T18:08:39.556Z,54.55
2022-12-12T18:11:08.920Z,56.47
2022-12-12T18:13:38.937Z,62.33
2022-12-12T18:16:07.880Z,63.17
2022-12-12T18:18:36.518Z,60.95
2022-12-12T18:21:06.816Z,60.38
2022-12-12T18:23:35.271Z,61.28
2022-12-12T18:26:04.934Z,59.60
2022-12-12T18:28:33.236Z,59.97
2022-12-12T18:31:01.845Z,56.28
2022-12-12T18:33:30.088Z,56.47
2022-12-12T18:36:02.996Z,57.28
2022-12-12T18:38:32.749Z,56.92
2022-12-12T18:41:01.136Z,53.92
2022-12-12T18:43:30.178Z,48.05
2022-12-12T18:46:02.038Z,50.00
2022-12-12T18:48:33.229Z,50.70
2022-12-12T18:51:06.164Z,51.85
2022-12-12T18:53:36.143Z,57.03
2022-12-12T18:56:07.032Z,52.58
2022-12-12T18:58:35.354Z,54.15
2022-12-12T19:01:05.076Z,55.00
2022-12-12T19:03:33.269Z,54.88
2022-12-12T19:06:04.669Z,56.40
2022-12-12T19:08:32.828Z,71.32
2022-12-12T19:11:02.483Z,69.50
2022-12-12T19:13:31.477Z,69.38
2022-12-12T19:16:04.787Z,70.13
2022-12-12T19:18:33.102Z,67.40
2022-12-12T19:21:05.952Z,67.55
2022-12-12T19:23:35.148Z,67.03
2022-12-12T19:26:08.288Z,66.75
2022-12-12T19:28:36.548Z,67.20
2022-12-12T19:31:07.767Z,66.65
2022-12-12T19:33:36.040Z,66.25
2022-12-12T19:36:10.257Z,67.50
2022-12-12T19:38:38.492Z,66.82
2022-12-12T19:41:09.223Z,65.07
2022-12-12T19:43:37.743Z,67.95
2022-12-12T19:46:06.787Z,67.93
2022-12-12T19:48:35.301Z,67.75
2022-12-12T19:51:08.498Z,66.65
2022-12-12T19:53:39.901Z,64.60
2022-12-12T19:56:09.947Z,62.35
2022-12-12T19:58:38.979Z,60.85
2022-12-12T20:01:08.896Z,60.75
2022-12-12T20:03:37.254Z,61.70
2022-12-12T20:06:06.992Z,60.53
2022-12-12T20:08:35.621Z,60.38
2022-12-12T20:11:05.303Z,58.97
2022-12-12T20:13:35.242Z,60.88
2022-12-12T20:16:07.690Z,59.67
2022-12-12T20:18:35.973Z,58.45
2022-12-12T20:21:04.346Z,58.35
2022-12-12T20:23:32.837Z,58.15
2022-12-12T20:26:03.439Z,58.10
2022-12-12T20:28:32.005Z,56.42
2022-12-12T20:31:09.041Z,55.40
2022-12-12T20:33:37.561Z,54.67
2022-12-12T20:36:07.281Z,53.42
2022-12-12T20:38:35.976Z,53.30
2022-12-12T20:41:04.185Z,51.47
2022-12-12T20:43:32.531Z,51.03
2022-12-12T20:46:00.966Z,50.42
2022-12-12T20:48:30.956Z,50.25
2022-12-12T20:50:59.482Z,49.30
2022-12-12T20:53:29.880Z,50.22
2022-12-12T20:56:07.794Z,48.88
2022-12-12T20:58:39.095Z,47.13
2022-12-12T21:01:11.405Z,45.10
2022-12-12T21:03:41.257Z,45.83
2022-12-12T21:06:14.077Z,44.65
2022-12-12T21:08:42.488Z,44.13
2022-12-12T21:11:10.904Z,43.08
2022-12-12T21:13:39.380Z,42.88
2022-12-12T21:16:11.117Z,41.85
2022-12-12T21:18:41.032Z,42.70
2022-12-12T21:21:11.701Z,40.88
2022-12-12T21:23:40.013Z,40.78
2022-12-12T21:26:08.968Z,38.85
2022-12-12T21:28:37.611Z,39.58
2022-12-12T21:31:06.951Z,39.30
2022-12-12T21:33:36.007Z,38.17
2022-12-12T21:36:06.501Z,37.85
2022-12-12T21:38:34.813Z,37.22
2022-12-12T21:41:05.132Z,36.13
2022-12-12T21:43:34.518Z,36.38
2022-12-12T21:46:04.203Z,34.85
2022-12-12T21:48:32.590Z,35.92
2022-12-12T21:51:02.087Z,34.15
2022-12-12T21:53:34.904Z,33.65
2022-12-12T21:56:07.145Z,32.55
2022-12-12T21:58:35.774Z,32.50
2022-12-12T22:01:07.740Z,33.40
2022-12-12T22:03:36.210Z,31.05
2022-12-12T22:06:10.898Z,31.27
2022-12-12T22:08:40.867Z,30.85
2022-12-12T22:11:09.645Z,29.92
2022-12-12T22:13:40.220Z,28.50
2022-12-12T22:16:10.689Z,28.92
2022-12-12T22:18:39.028Z,28.88
2022-12-12T22:21:07.864Z,27.20
2022-12-12T22:23:37.687Z,25.30
2022-12-12T22:26:15.776Z,26.23
2022-12-12T22:28:44.206Z,26.60
2022-12-12T22:31:12.409Z,27.40
2022-12-12T22:33:40.778Z,26.45
2022-12-12T22:36:10.114Z,25.48
2022-12-12T22:38:38.866Z,25.75
2022-12-12T22:41:08.429Z,25.10
2022-12-12T22:43:38.220Z,25.25
2022-12-12T22:46:07.117Z,24.27
2022-12-12T22:48:35.479Z,24.50
2022-12-12T22:51:13.596Z,23.38
2022-12-12T22:53:44.361Z,22.67
2022-12-12T22:56:12.977Z,23.83
2022-12-12T22:58:42.684Z,23.55
2022-12-12T23:01:12.915Z,23.55
2022-12-12T23:03:41.233Z,22.35
2022-12-12T23:06:12.284Z,22.27
2022-12-12T23:08:40.714Z,22.60
2022-12-12T23:11:09.577Z,22.83
2022-12-12T23:13:39.359Z,21.63
2022-12-12T23:16:13.528Z,21.15
2022-12-12T23:18:41.946Z,21.50
2022-12-12T23:21:16.286Z,20.77
2022-12-12T23:23:45.193Z,20.98
2022-12-12T23:26:14.261Z,20.70
2022-12-12T23:28:42.756Z,20.55
2022-12-12T23:31:13.140Z,19.85
2022-12-12T23:33:41.745Z,19.17
2022-12-12T23:36:10.380Z,19.77
2022-12-12T23:38:38.844Z,19.48
2022-12-12T23:41:07.426Z,18.67
2022-12-12T23:43:35.764Z,18.10
2022-12-12T23:46:04.562Z,18.27
2022-12-12T23:48:34.465Z,18.55
2022-12-12T23:51:02.805Z,18.23
2022-12-12T23:53:32.414Z,18.27
2022-12-12T23:56:05.086Z,18.23
2022-12-12T23:58:33.261Z,17.17
